createdAt,value
2022-11-26T00:02:31.481Z,78.31
2022-11-26T00:04:59.520Z,78.16
2022-11-26T00:07:29.828Z,77.87
2022-11-26T00:09:58.685Z,76.96
2022-11-26T14:14:26.181Z,52.45
2022-11-26T14:17:33.902Z,53.00
2022-11-26T14:20:03.100Z,53.79
2022-11-26T14:22:37.332Z,54.34
2022-11-26T14:25:07.073Z,54.84
2022-11-26T14:27:40.999Z,56.14
2022-11-26T14:30:07.547Z,56.24
2022-11-26T14:32:46.160Z,56.47
2022-11-26T14:35:33.947Z,57.54
2022-11-26T14:38:02.102Z,59.24
2022-11-26T14:40:38.759Z,59.88
2022-11-26T14:43:11.354Z,60.26
2022-11-26T14:45:38.318Z,60.74
2022-11-26T14:48:05.659Z,61.33
2022-11-26T14:50:36.129Z,62.22
2022-11-26T14:53:06.258Z,63.02
2022-11-26T14:55:34.858Z,63.80
2022-11-26T14:58:09.869Z,64.30
2022-11-26T15:00:36.880Z,64.76
2022-11-26T15:03:04.181Z,65.75
2022-11-26T15:05:33.450Z,66.52
2022-11-26T15:08:15.036Z,67.08
2022-11-26T15:10:49.873Z,67.10
2022-11-26T15:13:32.793Z,68.10
2022-11-26T15:16:02.071Z,67.94
2022-11-26T15:18:32.701Z,68.57
2022-11-26T15:21:02.235Z,68.50
2022-11-26T15:23:32.933Z,68.69
2022-11-26T15:26:00.668Z,68.91
2022-11-26T15:28:28.205Z,68.95
2022-11-26T15:31:03.606Z,69.29
2022-11-26T15:33:34.343Z,69.16
2022-11-26T15:36:02.509Z,68.36
2022-11-26T15:38:31.357Z,67.53
2022-11-26T15:40:59.245Z,67.40
2022-11-26T15:43:25.790Z,66.16
2022-11-26T15:45:55.922Z,66.10
2022-11-26T15:48:50.539Z,66.11
2022-11-26T15:51:23.082Z,66.45
2022-11-26T15:53:50.548Z,64.85
2022-11-26T15:56:24.320Z,65.42
2022-11-26T15:58:59.522Z,65.95
2022-11-26T16:01:32.595Z,65.70
2022-11-26T16:04:06.348Z,66.25
2022-11-26T16:06:38.173Z,66.53
2022-11-26T16:09:04.687Z,66.41
2022-11-26T16:11:34.438Z,66.40
2022-11-26T16:14:22.697Z,66.46
2022-11-26T16:16:51.412Z,66.62
2022-11-26T16:19:18.505Z,66.61
2022-11-26T16:21:50.653Z,67.59
2022-11-26T16:24:27.196Z,67.21
2022-11-26T16:26:57.524Z,67.25
2022-11-26T16:29:28.340Z,67.91
2022-11-26T16:31:55.706Z,68.47
2022-11-26T16:34:22.888Z,67.70
2022-11-26T16:36:49.596Z,66.92
2022-11-26T16:39:17.526Z,66.76
2022-11-26T16:41:44.094Z,66.52
2022-11-26T16:44:10.695Z,66.95
2022-11-26T16:46:38.380Z,68.56
2022-11-26T16:49:05.286Z,68.96
2022-11-26T16:51:31.929Z,69.66
2022-11-26T16:53:58.504Z,69.97
2022-11-26T16:56:36.177Z,70.33
2022-11-26T16:59:04.971Z,71.34
2022-11-26T17:01:31.848Z,71.71
2022-11-26T17:03:58.507Z,71.75
2022-11-26T17:06:33.916Z,72.40
2022-11-26T17:09:01.275Z,72.80
2022-11-26T17:11:27.994Z,72.90
2022-11-26T17:13:55.751Z,72.70
2022-11-26T17:16:23.573Z,73.74
2022-11-26T17:18:50.661Z,74.67
2022-11-26T17:21:17.491Z,74.98
2022-11-26T17:23:44.161Z,75.25
2022-11-26T17:26:20.488Z,75.63
2022-11-26T17:28:47.697Z,76.06
2022-11-26T17:31:14.688Z,76.13
2022-11-26T17:33:41.361Z,76.74
2022-11-26T17:36:20.979Z,76.80
2022-11-26T17:38:48.449Z,76.41
2022-11-26T17:41:16.099Z,77.08
2022-11-26T17:43:43.402Z,77.04
2022-11-26T17:46:18.250Z,77.12
2022-11-26T17:48:45.815Z,78.36
2022-11-26T17:51:14.424Z,77.91
2022-11-26T17:53:42.335Z,77.75
2022-11-26T17:56:21.693Z,77.57
2022-11-26T17:58:48.812Z,77.39
2022-11-26T18:01:16.236Z,77.79
2022-11-26T18:03:43.804Z,78.40
2022-11-26T18:06:37.486Z,78.12
2022-11-26T18:09:04.416Z,78.77
2022-11-26T18:11:49.941Z,79.26
2022-11-26T18:14:17.400Z,79.07
2022-11-26T18:16:44.478Z,79.27
2022-11-26T18:19:13.787Z,79.86
2022-11-26T18:21:40.593Z,80.03
2022-11-26T18:24:08.241Z,80.10
2022-11-26T18:26:35.422Z,80.81
2022-11-26T18:29:02.815Z,80.95
2022-11-26T18:31:32.443Z,80.13
2022-11-26T18:34:02.121Z,80.75
2022-11-26T18:36:29.458Z,80.68
2022-11-26T18:38:56.366Z,80.80
2022-11-26T18:41:23.395Z,81.36
2022-11-26T18:43:49.972Z,80.75
2022-11-26T18:46:17.907Z,81.03
2022-11-26T18:48:46.804Z,81.39
2022-11-26T18:51:15.199Z,81.53
2022-11-26T18:53:42.148Z,81.58
2022-11-26T18:56:14.411Z,82.05
2022-11-26T18:58:41.551Z,82.26
2022-11-26T19:01:18.975Z,82.08
2022-11-26T19:03:45.628Z,81.97
2022-11-26T19:06:17.877Z,82.07
2022-11-26T19:08:45.104Z,81.74
2022-11-26T19:11:17.827Z,82.10
2022-11-26T19:13:44.405Z,82.77
2022-11-26T19:16:16.692Z,83.02
2022-11-26T19:18:44.675Z,83.03
2022-11-26T19:21:17.518Z,82.54
2022-11-26T19:23:44.235Z,83.34
2022-11-26T19:26:11.274Z,83.17
2022-11-26T19:28:37.903Z,83.51
2022-11-26T19:31:07.645Z,83.58
2022-11-26T19:33:34.509Z,83.08
2022-11-26T19:36:13.105Z,83.84
2022-11-26T19:38:39.840Z,84.27
2022-11-26T19:41:07.146Z,83.79
2022-11-26T19:43:35.972Z,83.87
2022-11-26T19:46:04.073Z,83.85
2022-11-26T19:48:30.869Z,84.39
2022-11-26T19:50:57.511Z,84.42
2022-11-26T19:53:24.506Z,84.53
2022-11-26T19:55:58.637Z,84.34
2022-11-26T19:58:25.548Z,84.75
2022-11-26T20:00:52.395Z,85.49
2022-11-26T20:03:19.484Z,85.10
2022-11-26T20:05:46.647Z,84.78
2022-11-26T20:08:13.776Z,84.84
2022-11-26T20:10:40.503Z,84.81
2022-11-26T20:13:08.043Z,85.40
2022-11-26T20:15:40.680Z,86.24
2022-11-26T20:18:07.948Z,85.79
2022-11-26T20:20:35.338Z,85.80
2022-11-26T20:23:02.241Z,85.95
2022-11-26T20:25:33.075Z,85.46
2022-11-26T20:27:59.730Z,84.27
2022-11-26T20:30:26.814Z,84.86
2022-11-26T20:32:53.420Z,84.99
2022-11-26T20:35:20.026Z,85.08
2022-11-26T20:37:46.630Z,84.92
2022-11-26T20:40:13.400Z,84.33
2022-11-26T20:42:40.919Z,84.49
2022-11-26T20:45:07.700Z,84.02
2022-11-26T20:47:34.342Z,84.19
2022-11-26T20:50:00.944Z,83.81
2022-11-26T20:52:27.542Z,84.10
2022-11-26T20:54:54.217Z,83.93
2022-11-26T20:57:21.535Z,83.87
2022-11-26T20:59:48.154Z,83.03
2022-11-26T21:02:15.607Z,82.89
2022-11-26T21:04:42.314Z,83.28
2022-11-26T21:07:08.890Z,83.45
2022-11-26T21:09:35.459Z,83.61
2022-11-26T21:12:02.083Z,82.46
2022-11-26T21:14:29.598Z,82.43
2022-11-26T21:16:56.265Z,82.37
2022-11-26T21:19:23.006Z,82.68
2022-11-26T21:21:49.592Z,83.22
2022-11-26T21:24:17.075Z,83.26
2022-11-26T21:26:43.681Z,83.17
2022-11-26T21:29:10.291Z,83.96
2022-11-26T21:31:37.225Z,83.97
2022-11-26T21:34:06.297Z,84.10
2022-11-26T21:36:35.079Z,83.52
2022-11-26T21:39:02.173Z,83.24
2022-11-26T21:41:29.074Z,84.22
2022-11-26T21:43:55.695Z,83.69
2022-11-26T21:46:25.041Z,84.33
2022-11-26T21:48:52.964Z,84.12
2022-11-26T21:51:20.623Z,84.58
2022-11-26T21:53:49.580Z,84.77
2022-11-26T21:56:24.708Z,84.93
2022-11-26T21:58:51.557Z,85.49
2022-11-26T22:01:27.132Z,85.64
2022-11-26T22:03:56.390Z,85.29
2022-11-26T22:06:23.970Z,85.59
2022-11-26T22:08:51.245Z,85.87
2022-11-26T22:11:24.265Z,85.28
2022-11-26T22:13:51.431Z,84.93
2022-11-26T22:16:19.974Z,85.48
2022-11-26T22:18:47.714Z,85.54
2022-11-26T22:21:21.513Z,85.20
2022-11-26T22:23:49.421Z,85.74
2022-11-26T22:26:16.332Z,85.61
2022-11-26T22:28:43.128Z,85.75
2022-11-26T22:31:19.633Z,85.65
2022-11-26T22:33:46.968Z,85.44
2022-11-26T22:36:13.996Z,85.51
2022-11-26T22:38:41.979Z,85.23
2022-11-26T22:41:10.578Z,84.84
2022-11-26T22:43:37.645Z,84.01
2022-11-26T22:46:09.795Z,84.21
2022-11-26T22:48:36.619Z,83.70
2022-11-26T22:51:03.780Z,84.14
2022-11-26T22:53:31.432Z,84.20
2022-11-26T22:55:59.862Z,84.74
2022-11-26T22:58:28.250Z,84.78
2022-11-26T23:00:57.389Z,85.59
2022-11-26T23:03:25.398Z,85.21
2022-11-26T23:05:52.781Z,85.86
2022-11-26T23:08:20.724Z,85.53
2022-11-26T23:10:48.532Z,85.93
2022-11-26T23:13:16.083Z,85.95
2022-11-26T23:15:45.061Z,86.35
2022-11-26T23:18:13.870Z,86.30
2022-11-26T23:20:40.847Z,86.45
2022-11-26T23:23:07.455Z,85.53
2022-11-26T23:25:37.983Z,86.17
2022-11-26T23:28:04.747Z,85.53
2022-11-26T23:30:31.309Z,85.38
2022-11-26T23:32:57.958Z,85.71
2022-11-26T23:35:24.574Z,86.24
2022-11-26T23:37:51.139Z,86.38
2022-11-26T23:40:17.831Z,86.91
2022-11-26T23:42:44.484Z,86.41
2022-11-26T23:45:11.209Z,86.37
2022-11-26T23:47:39.837Z,86.43
2022-11-26T23:50:07.246Z,86.72
2022-11-26T23:52:34.805Z,85.96
2022-11-26T23:55:01.649Z,85.81
2022-11-26T23:57:28.356Z,85.86
2022-11-26T23:59:54.945Z,85.03
